createdAt,value
2022-10-14T00:01:33.009Z,98627.41
2022-10-14T00:04:00.351Z,98624.53
2022-10-14T00:06:30.493Z,98620.50
2022-10-14T00:09:00.407Z,98624.16
2022-10-14T00:11:31.395Z,98620.94
2022-10-14T00:14:02.201Z,98617.84
2022-10-14T00:16:33.729Z,98625.78
2022-10-14T00:19:01.440Z,98617.41
2022-10-14T00:21:28.998Z,98615.72
2022-10-14T00:23:56.886Z,98611.91
2022-10-14T00:26:26.119Z,98603.66
2022-10-14T00:28:53.446Z,98602.88
2022-10-14T00:31:20.865Z,98603.28
2022-10-14T00:33:48.225Z,98599.16
2022-10-14T00:36:17.180Z,98597.31
2022-10-14T00:38:45.479Z,98600.16
2022-10-14T00:41:16.972Z,98610.75
2022-10-14T00:44:07.894Z,98603.66
2022-10-14T00:46:36.928Z,98599.44
2022-10-14T00:49:15.863Z,98601.94
2022-10-14T00:51:47.899Z,98605.03
2022-10-14T00:54:17.946Z,98595.06
2022-10-14T00:56:49.320Z,98597.66
2022-10-14T00:59:16.555Z,98599.88
2022-10-14T01:01:43.248Z,98602.53
2022-10-14T01:04:09.834Z,98594.16
2022-10-14T01:06:44.217Z,98598.19
2022-10-14T01:09:26.023Z,98595.63
2022-10-14T01:12:28.044Z,98603.41
2022-10-14T01:15:11.520Z,98588.81
2022-10-14T01:18:00.226Z,98591.59
2022-10-14T01:20:58.393Z,98592.03
2022-10-14T01:23:38.311Z,98595.47
2022-10-14T01:26:23.366Z,98600.50
2022-10-14T01:29:28.060Z,98606.41
2022-10-14T01:32:03.993Z,98606.22
2022-10-14T01:34:37.830Z,98616.44
2022-10-14T01:37:12.582Z,98611.47
2022-10-14T01:39:44.779Z,98611.69
2022-10-14T01:42:16.340Z,98615.34
2022-10-14T01:44:47.495Z,98620.88
2022-10-14T01:47:18.516Z,98620.03
2022-10-14T01:49:52.980Z,98614.38
2022-10-14T01:52:27.476Z,98611.13
2022-10-14T01:54:59.850Z,98616.22
2022-10-14T01:57:29.980Z,98607.47
2022-10-14T01:59:58.426Z,98609.44
2022-10-14T02:02:25.657Z,98611.75
2022-10-14T02:04:52.628Z,98605.56
2022-10-14T02:07:33.195Z,98608.97
2022-10-14T02:10:14.600Z,98608.09
2022-10-14T02:12:57.656Z,98604.00
2022-10-14T02:15:34.548Z,98605.59
2022-10-14T02:18:17.807Z,98599.50
2022-10-14T02:20:54.636Z,98601.53
2022-10-14T02:23:26.468Z,98600.97
2022-10-14T02:25:54.938Z,98596.47
2022-10-14T02:28:25.524Z,98600.16
2022-10-14T02:30:57.828Z,98604.41
2022-10-14T02:33:31.088Z,98608.91
2022-10-14T02:35:58.021Z,98611.38
2022-10-14T02:38:25.895Z,98618.53
2022-10-14T02:40:53.015Z,98617.75
2022-10-14T02:43:19.976Z,98627.41
2022-10-14T02:45:46.605Z,98634.88
2022-10-14T02:48:13.527Z,98638.81
2022-10-14T02:50:41.485Z,98659.06
2022-10-14T02:53:08.330Z,98680.44
2022-10-14T02:55:35.180Z,98683.88
2022-10-14T02:58:01.863Z,98672.09
2022-10-14T03:00:28.582Z,98687.72
2022-10-14T03:02:55.239Z,98679.25
2022-10-14T03:05:21.847Z,98668.13
2022-10-14T03:07:48.484Z,98642.09
2022-10-14T03:10:15.459Z,98651.84
2022-10-14T03:12:42.041Z,98642.31
2022-10-14T03:15:09.455Z,98641.25
2022-10-14T03:17:36.499Z,98628.16
2022-10-14T03:20:05.392Z,98621.34
2022-10-14T03:22:32.213Z,98613.16
2022-10-14T03:24:59.094Z,98624.41
2022-10-14T03:27:25.926Z,98618.25
2022-10-14T03:29:52.554Z,98619.19
2022-10-14T03:32:19.523Z,98629.94
2022-10-14T03:34:46.356Z,98635.59
2022-10-14T03:37:12.981Z,98638.84
2022-10-14T03:39:39.664Z,98650.53
2022-10-14T03:42:06.384Z,98644.66
2022-10-14T03:44:33.035Z,98642.00
2022-10-14T03:46:59.680Z,98661.13
2022-10-14T03:49:26.378Z,98667.97
2022-10-14T03:51:53.041Z,98665.09
2022-10-14T03:54:19.655Z,98663.59
2022-10-14T03:56:46.319Z,98668.44
2022-10-14T03:59:12.925Z,98663.00
2022-10-14T04:01:39.590Z,98665.56
2022-10-14T04:04:06.411Z,98657.44
2022-10-14T04:06:33.047Z,98648.41
2022-10-14T04:08:59.708Z,98653.13
2022-10-14T04:11:26.405Z,98656.75
2022-10-14T04:13:53.027Z,98649.09
2022-10-14T04:16:20.359Z,98648.94
2022-10-14T04:18:47.029Z,98656.28
2022-10-14T04:21:13.736Z,98656.28
2022-10-14T04:23:40.348Z,98647.88
2022-10-14T04:26:08.534Z,98636.69
2022-10-14T04:28:35.608Z,98635.91
2022-10-14T04:31:02.512Z,98636.25
2022-10-14T04:33:29.222Z,98633.38
2022-10-14T04:36:00.396Z,98641.31
2022-10-14T04:38:27.580Z,98641.13
2022-10-14T04:40:55.098Z,98640.69
2022-10-14T04:43:22.030Z,98624.78
2022-10-14T04:45:49.485Z,98635.16
2022-10-14T04:48:17.259Z,98639.44
2022-10-14T04:50:44.192Z,98646.38
2022-10-14T04:53:13.767Z,98641.88
2022-10-14T04:55:41.096Z,98643.91
2022-10-14T04:58:11.164Z,98641.88
2022-10-14T05:00:37.823Z,98641.88
2022-10-14T05:03:05.070Z,98640.84
2022-10-14T05:05:31.735Z,98643.50
2022-10-14T05:07:58.444Z,98637.16
2022-10-14T05:10:25.131Z,98644.66
2022-10-14T05:12:55.034Z,98639.13
2022-10-14T05:15:21.987Z,98640.53
2022-10-14T05:17:48.597Z,98629.94
2022-10-14T05:20:15.247Z,98628.91
2022-10-14T05:22:45.250Z,98626.25
2022-10-14T05:25:12.097Z,98617.28
2022-10-14T05:27:38.976Z,98623.75
2022-10-14T05:30:06.113Z,98626.63
2022-10-14T05:32:33.411Z,98622.13
2022-10-14T05:35:00.014Z,98612.56
2022-10-14T05:37:26.898Z,98621.69
2022-10-14T05:39:55.171Z,98617.06
2022-10-14T05:42:22.414Z,98617.34
2022-10-14T05:44:49.304Z,98611.81
2022-10-14T05:47:15.954Z,98615.72
2022-10-14T05:49:42.858Z,98613.66
2022-10-14T05:52:09.516Z,98609.75
2022-10-14T05:54:36.103Z,98614.25
2022-10-14T05:57:02.829Z,98615.03
2022-10-14T05:59:29.952Z,98620.34
2022-10-14T06:01:57.106Z,98614.25
2022-10-14T06:04:23.755Z,98613.22
2022-10-14T06:06:50.452Z,98605.28
2022-10-14T06:09:17.664Z,98613.00
2022-10-14T06:11:44.559Z,98612.56
2022-10-14T06:14:11.263Z,98613.19
2022-10-14T06:16:37.955Z,98613.97
2022-10-14T06:19:04.670Z,98614.75
2022-10-14T06:21:31.294Z,98616.63
2022-10-14T06:23:57.895Z,98617.41
2022-10-14T06:26:24.512Z,98614.75
2022-10-14T06:28:51.175Z,98612.72
2022-10-14T06:31:17.884Z,98611.69
2022-10-14T06:33:45.128Z,98612.50
2022-10-14T06:36:12.162Z,98610.44
2022-10-14T06:38:38.898Z,98605.47
2022-10-14T06:41:05.708Z,98607.94
2022-10-14T06:43:32.868Z,98613.78
2022-10-14T06:45:59.661Z,98609.09
2022-10-14T06:48:26.634Z,98613.13
2022-10-14T06:50:53.763Z,98603.69
2022-10-14T06:53:21.127Z,98609.34
2022-10-14T06:55:47.773Z,98611.34
2022-10-14T06:58:14.490Z,98610.06
2022-10-14T07:00:44.391Z,98607.94
2022-10-14T07:03:15.463Z,98602.53
2022-10-14T07:05:42.044Z,98612.34
2022-10-14T07:08:11.366Z,98616.97
2022-10-14T07:10:41.110Z,98626.78
2022-10-14T07:13:07.737Z,98619.88
2022-10-14T07:15:36.349Z,98622.75
2022-10-14T07:18:04.530Z,98622.53
2022-10-14T07:20:31.145Z,98625.06
2022-10-14T07:22:57.782Z,98629.59
2022-10-14T07:25:24.567Z,98631.91
2022-10-14T07:27:53.275Z,98631.13
2022-10-14T07:30:20.260Z,98626.59
2022-10-14T07:32:47.020Z,98627.88
2022-10-14T07:35:13.736Z,98631.94
2022-10-14T07:37:40.655Z,98630.22
2022-10-14T07:40:08.291Z,98627.53
2022-10-14T07:42:34.884Z,98629.16
2022-10-14T07:45:01.802Z,98636.00
2022-10-14T07:47:28.473Z,98630.19
2022-10-14T07:49:55.106Z,98623.63
2022-10-14T07:52:21.733Z,98635.63
2022-10-14T07:54:49.503Z,98629.06
2022-10-14T07:57:16.785Z,98630.44
2022-10-14T07:59:43.435Z,98639.91
2022-10-14T08:02:11.679Z,98635.75
2022-10-14T08:04:38.564Z,98637.13
2022-10-14T08:07:05.406Z,98639.00
2022-10-14T08:09:35.972Z,98640.25
2022-10-14T08:12:02.746Z,98638.63
2022-10-14T08:14:29.478Z,98640.81
2022-10-14T08:16:56.110Z,98638.63
2022-10-14T08:19:23.122Z,98636.34
2022-10-14T08:21:49.832Z,98633.69
2022-10-14T08:24:16.449Z,98646.97
2022-10-14T08:26:52.753Z,98641.44
2022-10-14T08:29:19.435Z,98640.16
2022-10-14T08:31:46.469Z,98643.84
2022-10-14T08:34:13.143Z,98642.22
2022-10-14T08:36:39.888Z,98642.09
2022-10-14T08:39:07.363Z,98637.81
2022-10-14T08:41:49.317Z,98632.56
2022-10-14T08:44:23.039Z,98634.41
2022-10-14T08:47:00.522Z,98627.78
2022-10-14T08:49:29.163Z,98637.56
2022-10-14T08:52:03.317Z,98636.03
2022-10-14T08:54:35.185Z,98639.22
2022-10-14T08:57:04.474Z,98636.41
2022-10-14T08:59:40.392Z,98635.97
2022-10-14T09:02:34.005Z,98630.25
2022-10-14T09:05:02.197Z,98636.81
2022-10-14T09:07:31.801Z,98632.38
2022-10-14T09:10:03.658Z,98637.47
2022-10-14T09:12:33.252Z,98633.28
2022-10-14T09:15:19.759Z,98634.41
2022-10-14T09:17:57.197Z,98631.63
2022-10-14T09:20:25.635Z,98625.97
2022-10-14T09:23:05.299Z,98630.72
2022-10-14T09:25:35.051Z,98627.31
2022-10-14T09:28:02.220Z,98624.50
2022-10-14T09:30:35.647Z,98621.56
2022-10-14T09:33:04.723Z,98617.44
2022-10-14T09:35:35.377Z,98609.72
2022-10-14T09:38:02.089Z,98611.56
2022-10-14T09:40:35.185Z,98605.84
2022-10-14T09:43:18.785Z,98611.66
2022-10-14T09:46:07.951Z,98605.75
2022-10-14T09:48:44.603Z,98601.91
2022-10-14T09:51:19.647Z,98604.91
2022-10-14T09:53:51.969Z,98597.72
2022-10-14T09:56:29.436Z,98598.50
2022-10-14T09:58:58.212Z,98603.81
2022-10-14T10:01:27.646Z,98596.41
2022-10-14T10:03:55.746Z,98592.22
2022-10-14T10:06:26.502Z,98594.66
2022-10-14T10:08:53.024Z,98590.44
2022-10-14T10:11:33.538Z,98587.31
2022-10-14T10:14:19.001Z,98586.84
2022-10-14T10:16:45.723Z,98579.53
2022-10-14T10:19:28.866Z,98581.59
2022-10-14T10:22:14.879Z,98572.31
2022-10-14T10:24:41.583Z,98575.03
2022-10-14T10:27:25.838Z,98568.66
2022-10-14T10:29:55.838Z,98575.78
2022-10-14T10:32:30.247Z,98569.22
2022-10-14T10:35:12.454Z,98570.28
2022-10-14T10:38:02.325Z,98567.59
2022-10-14T10:40:39.157Z,98560.66
2022-10-14T10:43:06.877Z,98561.22
2022-10-14T10:45:53.492Z,98550.47
2022-10-14T10:48:25.984Z,98554.63
2022-10-14T10:51:05.484Z,98539.78
2022-10-14T10:53:49.753Z,98536.13
2022-10-14T10:56:38.757Z,98540.00
2022-10-14T10:59:39.197Z,98538.38
2022-10-14T11:02:41.039Z,98533.72
2022-10-14T11:05:23.480Z,98519.97
2022-10-14T11:08:14.705Z,98517.88
2022-10-14T11:11:36.441Z,98519.66
2022-10-14T11:14:16.008Z,98507.28
2022-10-14T11:17:03.246Z,98519.50
2022-10-14T11:19:40.897Z,98503.03
2022-10-14T11:22:34.554Z,98507.09
2022-10-14T11:25:07.951Z,98509.78
2022-10-14T11:27:43.696Z,98507.19
2022-10-14T11:30:16.176Z,98503.69
2022-10-14T11:32:42.818Z,98499.38
2022-10-14T11:35:19.399Z,98494.91
2022-10-14T11:38:21.699Z,98479.50
2022-10-14T11:41:03.631Z,98477.66
2022-10-14T11:43:39.480Z,98472.31
2022-10-14T11:46:08.965Z,98480.06
2022-10-14T11:48:59.053Z,98471.25
2022-10-14T11:51:36.292Z,98469.41
2022-10-14T11:54:05.754Z,98459.19
2022-10-14T11:56:43.519Z,98460.81
2022-10-14T11:59:49.697Z,98456.28
2022-10-14T12:02:21.895Z,98456.28
2022-10-14T12:04:57.654Z,98451.44
2022-10-14T12:07:31.762Z,98446.25
2022-10-14T12:10:03.103Z,98447.03
2022-10-14T12:12:32.388Z,98443.03
2022-10-14T12:15:04.356Z,98451.56
2022-10-14T12:17:46.320Z,98447.56
2022-10-14T12:20:22.326Z,98440.97
2022-10-14T12:22:50.407Z,98430.88
2022-10-14T12:25:20.428Z,98425.00
2022-10-14T12:27:48.365Z,98418.06
2022-10-14T12:30:47.374Z,98421.00
2022-10-14T12:33:22.406Z,98421.81
2022-10-14T12:36:00.893Z,98422.34
2022-10-14T12:38:29.566Z,98419.38
2022-10-14T12:41:32.246Z,98405.19
2022-10-14T12:44:01.842Z,98410.56
2022-10-14T12:46:28.477Z,98410.81
2022-10-14T12:48:55.129Z,98408.94
2022-10-14T12:51:24.367Z,98404.91
2022-10-14T12:54:12.366Z,98405.44
2022-10-14T12:56:44.687Z,98402.00
2022-10-14T12:59:25.503Z,98397.44
2022-10-14T13:02:00.390Z,98406.28
2022-10-14T13:04:28.648Z,98401.44
2022-10-14T13:07:46.584Z,98393.97
2022-10-14T13:10:49.780Z,98393.41
2022-10-14T13:13:49.402Z,98398.19
2022-10-14T13:16:19.176Z,98398.75
2022-10-14T13:18:45.763Z,98399.28
2022-10-14T13:21:52.764Z,98388.56
2022-10-14T13:24:30.454Z,98386.44
2022-10-14T13:27:01.117Z,98378.97
2022-10-14T13:30:02.643Z,98376.81
2022-10-14T13:32:44.424Z,98373.25
2022-10-14T13:35:34.739Z,98375.34
2022-10-14T13:38:07.310Z,98368.03
2022-10-14T13:40:38.668Z,98363.38
2022-10-14T13:43:13.715Z,98356.22
2022-10-14T13:45:50.723Z,98352.56
2022-10-14T13:48:30.736Z,98347.22
2022-10-14T13:51:37.101Z,98346.38
2022-10-14T13:54:22.194Z,98347.75
2022-10-14T13:57:42.552Z,98349.66
2022-10-14T14:02:48.063Z,98358.44
2022-10-14T14:05:19.222Z,98347.56
2022-10-14T14:10:39.197Z,98351.75
2022-10-14T14:13:14.059Z,98344.50
2022-10-14T14:15:40.963Z,98343.69
2022-10-14T14:18:30.443Z,98344.06
2022-10-14T14:21:04.974Z,98337.34
2022-10-14T14:23:31.605Z,98334.63
2022-10-14T14:26:18.473Z,98338.94
2022-10-14T14:28:48.281Z,98330.66
2022-10-14T14:31:19.165Z,98333.56
2022-10-14T14:33:46.719Z,98327.75
2022-10-14T14:36:27.550Z,98328.66
2022-10-14T14:38:57.896Z,98309.88
2022-10-14T14:41:26.917Z,98312.59
2022-10-14T14:44:23.947Z,98309.97
2022-10-14T14:46:45.507Z,98299.81
2022-10-14T14:49:17.030Z,98304.97
2022-10-14T14:51:44.487Z,98298.06
2022-10-14T14:54:22.493Z,98298.31
2022-10-14T14:57:04.690Z,98299.41
2022-10-14T14:59:35.548Z,98295.69
2022-10-14T15:02:04.977Z,98308.84
2022-10-14T15:04:34.941Z,98303.50
2022-10-14T15:07:18.700Z,98299.22
2022-10-14T15:09:52.235Z,98295.75
2022-10-14T15:12:22.121Z,98300.88
2022-10-14T15:14:51.177Z,98296.03
2022-10-14T15:17:34.234Z,98296.56
2022-10-14T15:20:28.986Z,98290.97
2022-10-14T15:22:55.699Z,98292.00
2022-10-14T15:25:23.371Z,98289.59
2022-10-14T15:27:55.016Z,98289.84
2022-10-14T15:30:31.993Z,98288.22
2022-10-14T15:33:15.466Z,98287.41
2022-10-14T15:35:43.561Z,98289.53
2022-10-14T15:38:16.645Z,98285.78
2022-10-14T15:40:44.759Z,98292.72
2022-10-14T15:43:17.620Z,98291.91
2022-10-14T15:45:46.346Z,98294.56
2022-10-14T15:48:19.976Z,98304.44
2022-10-14T15:50:48.111Z,98302.81
2022-10-14T15:53:17.273Z,98301.19
2022-10-14T15:55:44.169Z,98301.16
2022-10-14T15:58:10.774Z,98302.75
2022-10-14T16:00:37.475Z,98302.47
2022-10-14T16:03:04.251Z,98302.19
2022-10-14T16:05:30.977Z,98293.38
2022-10-14T16:07:57.799Z,98286.66
2022-10-14T16:10:26.455Z,98293.84
2022-10-14T16:12:54.692Z,98290.88
2022-10-14T16:15:51.874Z,98289.19
2022-10-14T16:18:18.518Z,98296.38
2022-10-14T16:20:46.360Z,98289.13
2022-10-14T16:23:18.584Z,98284.59
2022-10-14T16:25:46.868Z,98298.69
2022-10-14T16:28:13.954Z,98297.06
2022-10-14T16:30:44.085Z,98287.97
2022-10-14T16:35:38.407Z,98284.19
2022-10-14T16:38:04.989Z,98284.63
2022-10-14T16:40:36.567Z,98285.66
2022-10-14T16:43:04.276Z,98281.09
2022-10-14T16:45:30.958Z,98281.59
2022-10-14T16:47:57.571Z,98277.03
2022-10-14T16:50:24.430Z,98271.66
2022-10-14T16:53:06.338Z,98284.97
2022-10-14T16:55:33.387Z,98283.84
2022-10-14T16:58:00.013Z,98275.03
2022-10-14T17:00:26.614Z,98280.28
2022-10-14T17:02:56.386Z,98278.38
2022-10-14T17:05:23.006Z,98281.00
2022-10-14T17:07:49.650Z,98282.06
2022-10-14T17:10:16.810Z,98281.75
2022-10-14T17:12:43.462Z,98289.47
2022-10-14T17:15:10.518Z,98294.22
2022-10-14T17:17:40.456Z,98298.94
2022-10-14T17:20:09.376Z,98301.22
2022-10-14T17:22:36.125Z,98301.16
2022-10-14T17:25:02.853Z,98300.06
2022-10-14T17:27:29.426Z,98304.78
2022-10-14T17:29:56.083Z,98303.47
2022-10-14T17:32:22.840Z,98307.13
2022-10-14T17:34:53.317Z,98304.16
2022-10-14T17:37:20.688Z,98310.22
2022-10-14T17:39:47.292Z,98307.56
2022-10-14T17:42:13.911Z,98304.34
2022-10-14T17:44:43.807Z,98302.72
2022-10-14T17:47:10.971Z,98302.72
2022-10-14T17:49:37.582Z,98301.13
2022-10-14T17:52:06.198Z,98303.53
2022-10-14T17:54:32.843Z,98312.75
2022-10-14T17:56:59.471Z,98308.91
2022-10-14T17:59:26.128Z,98311.59
2022-10-14T18:02:08.106Z,98312.09
2022-10-14T18:04:34.856Z,98321.13
2022-10-14T18:07:01.657Z,98314.19
2022-10-14T18:09:29.672Z,98310.22
2022-10-14T18:12:13.119Z,98319.00
2022-10-14T18:14:40.673Z,98310.78
2022-10-14T18:17:10.686Z,98312.09
2022-10-14T18:19:37.414Z,98305.41
2022-10-14T18:22:04.234Z,98306.69
2022-10-14T18:24:30.890Z,98312.00
2022-10-14T18:26:57.459Z,98302.66
2022-10-14T18:29:24.713Z,98303.97
2022-10-14T18:34:19.074Z,98304.50
2022-10-14T18:36:47.818Z,98315.09
2022-10-14T18:39:15.461Z,98308.63
2022-10-14T18:41:43.898Z,98305.94
2022-10-14T18:44:10.613Z,98313.59
2022-10-14T18:46:39.382Z,98311.97
2022-10-14T18:49:08.712Z,98305.03
2022-10-14T18:51:37.946Z,98303.19
2022-10-14T18:54:07.805Z,98304.50
2022-10-14T18:56:38.718Z,98297.31
2022-10-14T18:59:09.127Z,98299.88
2022-10-14T19:01:37.850Z,98304.41
2022-10-14T19:04:06.661Z,98302.00
2022-10-14T19:06:34.763Z,98307.88
2022-10-14T19:09:02.000Z,98299.63
2022-10-14T19:11:29.611Z,98302.09
2022-10-14T19:13:58.274Z,98307.41
2022-10-14T19:16:33.639Z,98310.28
2022-10-14T19:19:04.588Z,98318.25
2022-10-14T19:21:31.767Z,98309.50
2022-10-14T19:23:59.043Z,98298.78
2022-10-14T19:26:30.962Z,98302.97
2022-10-14T19:29:01.543Z,98306.13
2022-10-14T19:31:30.927Z,98304.25
2022-10-14T19:33:59.792Z,98307.50
2022-10-14T19:36:26.467Z,98310.94
2022-10-14T19:38:57.981Z,98308.03
2022-10-14T19:41:28.186Z,98312.31
2022-10-14T19:43:56.955Z,98311.28
2022-10-14T19:46:27.603Z,98314.97
2022-10-14T19:48:57.468Z,98315.94
2022-10-14T19:51:25.171Z,98310.00
2022-10-14T19:53:53.832Z,98307.56
2022-10-14T19:56:20.769Z,98302.72
2022-10-14T19:58:51.919Z,98302.97
2022-10-14T20:01:19.993Z,98301.34
2022-10-14T20:03:47.141Z,98296.03
2022-10-14T20:06:14.044Z,98292.59
2022-10-14T20:08:41.211Z,98297.66
2022-10-14T20:11:10.090Z,98297.97
2022-10-14T20:13:37.703Z,98298.53
2022-10-14T20:16:06.582Z,98291.38
2022-10-14T20:18:33.462Z,98294.03
2022-10-14T20:21:02.704Z,98298.53
2022-10-14T20:23:32.433Z,98293.53
2022-10-14T20:26:00.566Z,98296.19
2022-10-14T20:28:27.163Z,98293.28
2022-10-14T20:30:54.328Z,98286.91
2022-10-14T20:33:21.054Z,98285.28
2022-10-14T20:35:47.680Z,98295.69
2022-10-14T20:38:14.373Z,98288.53
2022-10-14T20:40:41.003Z,98287.50
2022-10-14T20:43:07.580Z,98288.03
2022-10-14T20:45:34.292Z,98285.38
2022-10-14T20:48:01.099Z,98280.06
2022-10-14T20:50:27.714Z,98268.38
2022-10-14T20:52:54.290Z,98274.47
2022-10-14T20:55:20.907Z,98263.59
2022-10-14T20:57:49.903Z,98260.94
2022-10-14T21:00:16.738Z,98252.16
2022-10-14T21:05:19.240Z,98250.78
2022-10-14T21:07:45.922Z,98248.69
2022-10-14T21:10:12.546Z,98254.81
2022-10-14T21:12:39.187Z,98253.69
2022-10-14T21:15:06.251Z,98254.03
2022-10-14T21:17:32.866Z,98235.69
2022-10-14T21:20:02.686Z,98233.59
2022-10-14T21:22:29.428Z,98234.13
2022-10-14T21:24:56.054Z,98239.13
2022-10-14T21:27:22.903Z,98234.78
2022-10-14T21:29:49.925Z,98232.38
2022-10-14T21:32:16.629Z,98227.28
2022-10-14T21:34:43.253Z,98225.09
2022-10-14T21:37:09.945Z,98230.44
2022-10-14T21:39:36.528Z,98228.81
2022-10-14T21:42:03.208Z,98230.13
2022-10-14T21:44:29.863Z,98226.59
2022-10-14T21:46:56.444Z,98230.53
2022-10-14T21:49:23.217Z,98228.97
2022-10-14T21:51:49.840Z,98225.97
2022-10-14T21:54:16.453Z,98212.94
2022-10-14T21:56:43.405Z,98212.59
2022-10-14T21:59:11.568Z,98211.97
2022-10-14T22:01:38.353Z,98207.78
2022-10-14T22:04:06.385Z,98216.00
2022-10-14T22:06:34.827Z,98206.84
2022-10-14T22:09:03.728Z,98210.84
2022-10-14T22:11:34.471Z,98203.38
2022-10-14T22:14:03.374Z,98205.00
2022-10-14T22:16:30.631Z,98199.09
2022-10-14T22:19:00.275Z,98192.16
2022-10-14T22:21:28.992Z,98193.25
2022-10-14T22:23:55.981Z,98187.34
2022-10-14T22:26:24.512Z,98183.31
2022-10-14T22:29:02.250Z,98181.72
2022-10-14T22:31:30.428Z,98186.25
2022-10-14T22:33:58.297Z,98178.25
2022-10-14T22:36:28.908Z,98183.81
2022-10-14T22:38:56.803Z,98183.00
2022-10-14T22:41:25.435Z,98185.91
2022-10-14T22:43:54.655Z,98191.47
2022-10-14T22:46:23.888Z,98185.06
2022-10-14T22:48:56.250Z,98185.63
2022-10-14T22:51:31.974Z,98196.25
2022-10-14T22:53:59.021Z,98197.06
2022-10-14T22:56:28.467Z,98184.81
2022-10-14T22:58:56.973Z,98180.22
2022-10-14T23:01:24.201Z,98185.81
2022-10-14T23:03:50.828Z,98182.00
2022-10-14T23:06:17.614Z,98185.94
2022-10-14T23:08:44.412Z,98183.78
2022-10-14T23:11:15.695Z,98177.44
2022-10-14T23:13:42.821Z,98169.69
2022-10-14T23:16:14.799Z,98165.75
2022-10-14T23:21:18.256Z,98158.31
2022-10-14T23:23:46.296Z,98150.09
2022-10-14T23:26:15.068Z,98145.28
2022-10-14T23:28:42.358Z,98154.28
2022-10-14T23:31:11.351Z,98147.16
2022-10-14T23:33:39.146Z,98148.19
2022-10-14T23:36:07.372Z,98148.72
2022-10-14T23:38:35.210Z,98153.25
2022-10-14T23:41:03.292Z,98147.69
2022-10-14T23:43:30.368Z,98150.34
2022-10-14T23:45:57.107Z,98145.84
2022-10-14T23:48:23.747Z,98135.69
2022-10-14T23:50:50.784Z,98141.81
2022-10-14T23:53:17.819Z,98138.09
2022-10-14T23:55:44.973Z,98122.41
2022-10-14T23:58:12.687Z,98122.16
